QFA5562 NZAA-YSSY
Flight info
| Callsign | QFA5562 |
|---|---|
| Flight time | 3h 0m |
| Altitude | 34000 |
| Route | OSRA2P/23L VELMO DCT 38S163E/N0445F360 DCT PLUGA DCT RIKNI N774 MARLN |
| Aircraft | B739/M-SDE2E3FGHIRWXY/LB1 |
Departure
| Time | 2026-04-21 04:46 |
|---|---|
| Airport | Auckland International Airport (NZAA) |
Arrival
| Time | 2026-04-21 07:47 |
|---|---|
| Airport | Sydney Kingsford Smith International Airport (YSSY) |
| Time | Latitude | Longitude | Altitude | Speed | Heading |
|---|---|---|---|---|---|
| 2026-04-21 04:24 | -37.00757 | 174.78877 | 26 ft | 0 kts | 90° |
| 2026-04-21 04:36 | -37.00757 | 174.78866 | 30 ft | 2 kts | 89° |
| 2026-04-21 04:36 | -37.00757 | 174.78845 | 32 ft | 2 kts | 89° |
| 2026-04-21 04:36 | -37.00754 | 174.78826 | 30 ft | 2 kts | 165° |
| 2026-04-21 04:37 | -37.00738 | 174.78820 | 31 ft | 2 kts | 160° |
| 2026-04-21 04:37 | -37.00725 | 174.78815 | 30 ft | 1 kts | 160° |
| 2026-04-21 04:40 | -37.00756 | 174.78829 | 28 ft | 5 kts | 160° |
| 2026-04-21 04:40 | -37.00796 | 174.78845 | 28 ft | 8 kts | 162° |
| 2026-04-21 04:40 | -37.00861 | 174.78870 | 29 ft | 8 kts | 165° |
| 2026-04-21 04:40 | -37.00910 | 174.78890 | 28 ft | 7 kts | 149° |
| 2026-04-21 04:41 | -37.00917 | 174.78968 | 25 ft | 12 kts | 71° |
| 2026-04-21 04:41 | -37.00887 | 174.79077 | 24 ft | 14 kts | 71° |
| 2026-04-21 04:41 | -37.00855 | 174.79192 | 23 ft | 14 kts | 71° |
| 2026-04-21 04:41 | -37.00824 | 174.79301 | 24 ft | 13 kts | 70° |
| 2026-04-21 04:42 | -37.00793 | 174.79412 | 29 ft | 16 kts | 71° |
| 2026-04-21 04:42 | -37.00755 | 174.79552 | 27 ft | 17 kts | 71° |
| 2026-04-21 04:42 | -37.00717 | 174.79690 | 28 ft | 16 kts | 70° |
| 2026-04-21 04:42 | -37.00680 | 174.79822 | 30 ft | 16 kts | 71° |
| 2026-04-21 04:43 | -37.00645 | 174.79949 | 31 ft | 15 kts | 71° |
| 2026-04-21 04:43 | -37.00612 | 174.80072 | 32 ft | 15 kts | 71° |
| 2026-04-21 04:43 | -37.00580 | 174.80188 | 33 ft | 14 kts | 71° |
| 2026-04-21 04:43 | -37.00549 | 174.80300 | 31 ft | 13 kts | 71° |
| 2026-04-21 04:44 | -37.00535 | 174.80401 | 30 ft | 10 kts | 114° |
| 2026-04-21 04:44 | -37.00572 | 174.80460 | 30 ft | 4 kts | 130° |
| 2026-04-21 04:44 | -37.00585 | 174.80479 | 30 ft | 0 kts | 131° |
| 2026-04-21 04:45 | -37.00604 | 174.80504 | 30 ft | 7 kts | 135° |
| 2026-04-21 04:45 | -37.00641 | 174.80541 | 32 ft | 7 kts | 152° |
| 2026-04-21 04:45 | -37.00670 | 174.80538 | 31 ft | 1 kts | 218° |
| 2026-04-21 04:45 | -37.00682 | 174.80503 | 33 ft | 15 kts | 248° |
| 2026-04-21 04:46 | -37.00798 | 174.80090 | 34 ft | 84 kts | 251° |
| 2026-04-21 04:46 | -37.01061 | 174.79140 | 25 ft | 144 kts | 252° |
| 2026-04-21 04:46 | -37.01425 | 174.77773 | 122 ft | 179 kts | 249° |
| 2026-04-21 04:46 | -37.01804 | 174.76247 | 657 ft | 188 kts | 250° |
| 2026-04-21 04:47 | -37.02209 | 174.74669 | 1309 ft | 193 kts | 247° |
| 2026-04-21 04:47 | -37.02648 | 174.73033 | 1799 ft | 203 kts | 247° |
| 2026-04-21 04:47 | -37.03120 | 174.71327 | 2275 ft | 212 kts | 247° |
| 2026-04-21 04:47 | -37.03632 | 174.69545 | 2668 ft | 224 kts | 246° |
| 2026-04-21 04:48 | -37.04183 | 174.67659 | 3094 ft | 236 kts | 247° |
| 2026-04-21 04:48 | -37.04766 | 174.65630 | 3402 ft | 256 kts | 247° |
| 2026-04-21 04:48 | -37.05370 | 174.63495 | 4126 ft | 261 kts | 247° |
| 2026-04-21 04:48 | -37.05964 | 174.61349 | 4935 ft | 262 kts | 248° |
| 2026-04-21 04:49 | -37.06555 | 174.59193 | 5625 ft | 267 kts | 247° |
| 2026-04-21 04:49 | -37.07161 | 174.56994 | 6382 ft | 270 kts | 247° |
| 2026-04-21 04:49 | -37.07576 | 174.55480 | 6851 ft | 272 kts | 247° |
| 2026-04-21 04:49 | -37.08394 | 174.52495 | 7818 ft | 276 kts | 248° |
| 2026-04-21 04:50 | -37.09017 | 174.50214 | 8532 ft | 279 kts | 248° |
| 2026-04-21 04:50 | -37.09649 | 174.47900 | 9237 ft | 282 kts | 248° |
| 2026-04-21 04:50 | -37.10286 | 174.45565 | 9913 ft | 285 kts | 248° |
| 2026-04-21 04:50 | -37.10967 | 174.43152 | 10190 ft | 304 kts | 245° |
| 2026-04-21 04:51 | -37.11523 | 174.41463 | 10298 ft | 317 kts | 244° |
| 2026-04-21 04:51 | -37.12441 | 174.38860 | 10501 ft | 336 kts | 243° |
| 2026-04-21 04:51 | -37.13416 | 174.36153 | 10944 ft | 345 kts | 243° |
| 2026-04-21 04:51 | -37.14389 | 174.33438 | 11599 ft | 347 kts | 244° |
| 2026-04-21 04:52 | -37.15377 | 174.30664 | 12222 ft | 351 kts | 244° |
| 2026-04-21 04:52 | -37.16370 | 174.27856 | 12884 ft | 353 kts | 244° |
| 2026-04-21 04:52 | -37.17363 | 174.25032 | 13545 ft | 356 kts | 245° |
| 2026-04-21 04:52 | -37.18364 | 174.22177 | 14101 ft | 359 kts | 245° |
| 2026-04-21 04:53 | -37.19366 | 174.19313 | 14781 ft | 358 kts | 245° |
| 2026-04-21 04:53 | -37.20368 | 174.16441 | 15387 ft | 360 kts | 245° |
| 2026-04-21 04:53 | -37.21375 | 174.13552 | 15942 ft | 363 kts | 245° |
| 2026-04-21 04:53 | -37.22388 | 174.10644 | 16495 ft | 366 kts | 245° |
| 2026-04-21 04:54 | -37.23410 | 174.07707 | 17085 ft | 367 kts | 245° |
| 2026-04-21 04:54 | -37.24434 | 174.04762 | 17652 ft | 370 kts | 245° |
| 2026-04-21 04:54 | -37.25468 | 174.01785 | 18165 ft | 373 kts | 245° |
| 2026-04-21 04:54 | -37.26504 | 173.98799 | 18692 ft | 374 kts | 245° |
| 2026-04-21 04:55 | -37.27551 | 173.95780 | 19054 ft | 379 kts | 245° |
| 2026-04-21 04:55 | -37.28602 | 173.92743 | 19582 ft | 381 kts | 245° |
| 2026-04-21 04:55 | -37.29666 | 173.89667 | 19988 ft | 385 kts | 244° |
| 2026-04-21 04:55 | -37.30734 | 173.86577 | 20472 ft | 388 kts | 244° |
| 2026-04-21 04:56 | -37.31814 | 173.83450 | 20867 ft | 392 kts | 244° |
| 2026-04-21 04:56 | -37.32896 | 173.80309 | 21376 ft | 393 kts | 244° |
| 2026-04-21 04:56 | -37.33989 | 173.77140 | 21731 ft | 399 kts | 244° |
| 2026-04-21 04:56 | -37.35094 | 173.73928 | 22193 ft | 400 kts | 244° |
| 2026-04-21 04:57 | -37.36201 | 173.70712 | 22667 ft | 403 kts | 244° |
| 2026-04-21 04:57 | -37.37324 | 173.67445 | 22953 ft | 409 kts | 244° |
| 2026-04-21 04:57 | -37.38447 | 173.64175 | 23471 ft | 409 kts | 244° |
| 2026-04-21 04:57 | -37.39581 | 173.60869 | 23741 ft | 414 kts | 244° |
| 2026-04-21 04:58 | -37.40722 | 173.57534 | 24131 ft | 415 kts | 244° |
| 2026-04-21 04:58 | -37.41864 | 173.54193 | 24482 ft | 418 kts | 244° |
| 2026-04-21 04:58 | -37.43016 | 173.50819 | 24797 ft | 421 kts | 244° |
| 2026-04-21 04:58 | -37.44173 | 173.47427 | 25165 ft | 423 kts | 244° |
| 2026-04-21 04:59 | -37.45335 | 173.44017 | 25510 ft | 425 kts | 244° |
| 2026-04-21 04:59 | -37.46504 | 173.40584 | 25794 ft | 429 kts | 244° |
| 2026-04-21 04:59 | -37.47683 | 173.37118 | 26109 ft | 431 kts | 244° |
| 2026-04-21 04:59 | -37.48867 | 173.33633 | 26423 ft | 434 kts | 244° |
| 2026-04-21 05:00 | -37.50057 | 173.30120 | 26727 ft | 437 kts | 244° |
| 2026-04-21 05:00 | -37.51252 | 173.26594 | 27029 ft | 439 kts | 244° |
| 2026-04-21 05:00 | -37.53664 | 173.19461 | 27585 ft | 446 kts | 244° |
| 2026-04-21 05:01 | -37.54882 | 173.15855 | 27863 ft | 448 kts | 244° |
| 2026-04-21 05:01 | -37.56087 | 173.12279 | 28145 ft | 451 kts | 244° |
| 2026-04-21 05:01 | -37.57314 | 173.08634 | 28438 ft | 453 kts | 244° |
| 2026-04-21 05:01 | -37.58544 | 173.04975 | 28795 ft | 453 kts | 245° |
| 2026-04-21 05:02 | -37.59771 | 173.01320 | 29208 ft | 453 kts | 245° |
| 2026-04-21 05:02 | -37.60998 | 172.97662 | 29643 ft | 452 kts | 245° |
| 2026-04-21 05:02 | -37.62221 | 172.94016 | 30032 ft | 451 kts | 245° |
| 2026-04-21 05:02 | -37.63437 | 172.90379 | 30368 ft | 450 kts | 245° |
| 2026-04-21 05:03 | -37.64650 | 172.86749 | 30723 ft | 448 kts | 245° |
| 2026-04-21 05:03 | -37.65858 | 172.83126 | 31083 ft | 446 kts | 246° |
| 2026-04-21 05:03 | -37.67058 | 172.79524 | 31439 ft | 445 kts | 246° |
| 2026-04-21 05:03 | -37.68259 | 172.75919 | 31700 ft | 446 kts | 246° |
| 2026-04-21 05:04 | -37.69461 | 172.72308 | 31925 ft | 447 kts | 246° |
| 2026-04-21 05:04 | -37.70664 | 172.68686 | 32194 ft | 447 kts | 246° |
| 2026-04-21 05:04 | -37.71867 | 172.65061 | 32515 ft | 446 kts | 246° |
| 2026-04-21 05:04 | -37.73059 | 172.61461 | 32848 ft | 444 kts | 246° |
| 2026-04-21 05:05 | -37.74249 | 172.57865 | 33144 ft | 443 kts | 246° |
| 2026-04-21 05:05 | -37.75435 | 172.54278 | 33424 ft | 442 kts | 246° |
| 2026-04-21 05:05 | -37.76618 | 172.50692 | 33716 ft | 441 kts | 246° |
| 2026-04-21 05:05 | -37.77794 | 172.47125 | 33857 ft | 440 kts | 246° |
| 2026-04-21 05:06 | -37.80147 | 172.39978 | 33862 ft | 441 kts | 246° |
| 2026-04-21 05:06 | -37.82501 | 172.32805 | 33868 ft | 441 kts | 246° |
| 2026-04-21 05:07 | -37.84852 | 172.25627 | 33873 ft | 442 kts | 246° |
| 2026-04-21 05:07 | -37.87197 | 172.18446 | 33876 ft | 442 kts | 246° |
| 2026-04-21 05:08 | -37.89527 | 172.11295 | 33881 ft | 442 kts | 246° |
| 2026-04-21 05:08 | -37.91884 | 172.04043 | 33885 ft | 443 kts | 246° |
| 2026-04-21 05:09 | -37.94206 | 171.96879 | 33889 ft | 443 kts | 246° |
| 2026-04-21 05:09 | -37.96542 | 171.89657 | 33894 ft | 443 kts | 246° |
| 2026-04-21 05:10 | -37.98876 | 171.82423 | 33895 ft | 443 kts | 246° |
| 2026-04-21 05:10 | -38.01202 | 171.75191 | 33893 ft | 443 kts | 246° |
| 2026-04-21 05:11 | -38.03526 | 171.67948 | 33904 ft | 443 kts | 245° |
| 2026-04-21 05:11 | -38.05843 | 171.60710 | 33911 ft | 443 kts | 245° |
| 2026-04-21 05:12 | -38.08155 | 171.53467 | 33908 ft | 443 kts | 245° |
| 2026-04-21 05:12 | -38.10463 | 171.46218 | 33915 ft | 443 kts | 245° |
| 2026-04-21 05:13 | -38.12766 | 171.38974 | 33914 ft | 442 kts | 245° |
| 2026-04-21 05:13 | -38.15061 | 171.31732 | 33919 ft | 442 kts | 246° |
| 2026-04-21 05:14 | -38.17349 | 171.24486 | 33925 ft | 441 kts | 245° |
| 2026-04-21 05:14 | -38.19632 | 171.17242 | 33924 ft | 441 kts | 245° |
| 2026-04-21 05:15 | -38.21906 | 171.10013 | 33930 ft | 440 kts | 245° |
| 2026-04-21 05:15 | -38.24177 | 171.02778 | 33931 ft | 440 kts | 245° |
| 2026-04-21 05:16 | -38.26439 | 170.95545 | 33933 ft | 440 kts | 245° |
| 2026-04-21 05:16 | -38.27268 | 170.91783 | 33913 ft | 446 kts | 262° |
| 2026-04-21 05:16 | -38.27361 | 170.87840 | 33970 ft | 447 kts | 266° |
| 2026-04-21 05:17 | -38.27288 | 170.79915 | 33933 ft | 448 kts | 268° |
| 2026-04-21 05:17 | -38.27197 | 170.72022 | 33938 ft | 449 kts | 267° |
| 2026-04-21 05:18 | -38.27143 | 170.64073 | 33936 ft | 450 kts | 266° |
| 2026-04-21 05:18 | -38.27112 | 170.56103 | 33948 ft | 450 kts | 267° |
| 2026-04-21 05:19 | -38.27082 | 170.48130 | 33948 ft | 451 kts | 267° |
| 2026-04-21 05:19 | -38.27066 | 170.44138 | 34094 ft | 452 kts | 269° |
| 2026-04-21 05:19 | -38.27050 | 170.40121 | 34030 ft | 454 kts | 269° |
| 2026-04-21 05:20 | -38.27006 | 170.32051 | 33954 ft | 458 kts | 269° |
| 2026-04-21 05:20 | -38.26955 | 170.23930 | 33956 ft | 460 kts | 269° |
| 2026-04-21 05:21 | -38.26899 | 170.15777 | 33956 ft | 461 kts | 269° |
| 2026-04-21 05:21 | -38.26838 | 170.07626 | 33938 ft | 459 kts | 269° |
| 2026-04-21 05:22 | -38.26772 | 169.99549 | 33951 ft | 455 kts | 269° |
| 2026-04-21 05:22 | -38.26701 | 169.91581 | 33948 ft | 452 kts | 269° |
| 2026-04-21 05:23 | -38.26626 | 169.83593 | 33957 ft | 450 kts | 269° |
| 2026-04-21 05:23 | -38.26545 | 169.75621 | 33959 ft | 450 kts | 269° |
| 2026-04-21 05:24 | -38.26458 | 169.67674 | 33961 ft | 449 kts | 269° |
| 2026-04-21 05:24 | -38.26367 | 169.59694 | 33970 ft | 453 kts | 269° |
| 2026-04-21 05:25 | -38.26268 | 169.51632 | 33969 ft | 457 kts | 269° |
| 2026-04-21 05:25 | -38.26163 | 169.43538 | 33959 ft | 458 kts | 269° |
| 2026-04-21 05:26 | -38.26053 | 169.35436 | 33968 ft | 458 kts | 269° |
| 2026-04-21 05:26 | -38.25937 | 169.27346 | 33963 ft | 457 kts | 269° |
| 2026-04-21 05:27 | -38.25816 | 169.19277 | 33962 ft | 455 kts | 269° |
| 2026-04-21 05:27 | -38.25690 | 169.11236 | 33966 ft | 454 kts | 269° |
| 2026-04-21 05:28 | -38.25559 | 169.03281 | 33969 ft | 452 kts | 269° |
| 2026-04-21 05:28 | -38.25424 | 168.95298 | 33967 ft | 450 kts | 269° |
| 2026-04-21 05:29 | -38.25283 | 168.87342 | 33972 ft | 449 kts | 269° |
| 2026-04-21 05:29 | -38.25137 | 168.79412 | 33966 ft | 448 kts | 269° |
| 2026-04-21 05:30 | -38.24986 | 168.71494 | 33972 ft | 448 kts | 269° |
| 2026-04-21 05:30 | -38.24908 | 168.67535 | 33810 ft | 447 kts | 266° |
| 2026-04-21 05:30 | -38.24829 | 168.63590 | 33900 ft | 445 kts | 266° |
| 2026-04-21 05:31 | -38.24669 | 168.55756 | 33976 ft | 443 kts | 266° |
| 2026-04-21 05:31 | -38.24505 | 168.47893 | 33977 ft | 445 kts | 267° |
| 2026-04-21 05:32 | -38.24335 | 168.40036 | 33971 ft | 443 kts | 267° |
| 2026-04-21 05:32 | -38.24159 | 168.32207 | 33974 ft | 442 kts | 267° |
| 2026-04-21 05:33 | -38.23979 | 168.24403 | 33980 ft | 441 kts | 267° |
| 2026-04-21 05:33 | -38.23795 | 168.16560 | 33990 ft | 445 kts | 267° |
| 2026-04-21 05:34 | -38.23605 | 168.08707 | 33981 ft | 448 kts | 267° |
| 2026-04-21 05:34 | -38.23405 | 168.00766 | 33978 ft | 450 kts | 267° |
| 2026-04-21 05:35 | -38.23200 | 167.92817 | 33976 ft | 450 kts | 267° |
| 2026-04-21 05:35 | -38.22989 | 167.84873 | 33972 ft | 449 kts | 267° |
| 2026-04-21 05:36 | -38.22774 | 167.76957 | 33975 ft | 447 kts | 267° |
| 2026-04-21 05:36 | -38.22592 | 167.70403 | 33973 ft | 446 kts | 268° |
| 2026-04-21 05:37 | -38.22369 | 167.62544 | 33976 ft | 444 kts | 268° |
| 2026-04-21 05:37 | -38.22142 | 167.54710 | 33975 ft | 443 kts | 268° |
| 2026-04-21 05:38 | -38.21911 | 167.46896 | 33977 ft | 442 kts | 268° |
| 2026-04-21 05:38 | -38.21675 | 167.39092 | 33982 ft | 441 kts | 268° |
| 2026-04-21 05:39 | -38.21434 | 167.31293 | 33979 ft | 442 kts | 268° |
| 2026-04-21 05:39 | -38.21187 | 167.23479 | 33978 ft | 443 kts | 268° |
| 2026-04-21 05:40 | -38.20934 | 167.15645 | 33981 ft | 444 kts | 268° |
| 2026-04-21 05:40 | -38.20676 | 167.07798 | 33983 ft | 445 kts | 268° |
| 2026-04-21 05:41 | -38.20411 | 166.99920 | 33980 ft | 446 kts | 268° |
| 2026-04-21 05:41 | -38.20140 | 166.92035 | 33979 ft | 447 kts | 269° |
| 2026-04-21 05:42 | -38.19863 | 166.84123 | 33974 ft | 447 kts | 269° |
| 2026-04-21 05:42 | -38.19581 | 166.76220 | 33976 ft | 448 kts | 269° |
| 2026-04-21 05:43 | -38.19296 | 166.68367 | 33973 ft | 447 kts | 269° |
| 2026-04-21 05:43 | -38.19004 | 166.60473 | 33978 ft | 447 kts | 269° |
| 2026-04-21 05:44 | -38.18706 | 166.52583 | 33989 ft | 446 kts | 269° |
| 2026-04-21 05:44 | -38.18404 | 166.44702 | 33988 ft | 446 kts | 269° |
| 2026-04-21 05:45 | -38.18097 | 166.36827 | 33980 ft | 445 kts | 269° |
| 2026-04-21 05:45 | -38.17785 | 166.28974 | 33981 ft | 445 kts | 269° |
| 2026-04-21 05:46 | -38.17469 | 166.21122 | 33992 ft | 445 kts | 269° |
| 2026-04-21 05:46 | -38.17147 | 166.13274 | 33981 ft | 445 kts | 269° |
| 2026-04-21 05:47 | -38.16819 | 166.05421 | 33985 ft | 445 kts | 269° |
| 2026-04-21 05:47 | -38.16487 | 165.97560 | 33986 ft | 446 kts | 269° |
| 2026-04-21 05:48 | -38.16148 | 165.89694 | 33985 ft | 446 kts | 269° |
| 2026-04-21 05:48 | -38.15804 | 165.81811 | 33986 ft | 447 kts | 269° |
| 2026-04-21 05:49 | -38.15453 | 165.73910 | 33987 ft | 448 kts | 269° |
| 2026-04-21 05:49 | -38.15096 | 165.65992 | 33991 ft | 449 kts | 269° |
| 2026-04-21 05:50 | -38.14734 | 165.58057 | 33990 ft | 450 kts | 269° |
| 2026-04-21 05:50 | -38.14367 | 165.50165 | 33990 ft | 451 kts | 269° |
| 2026-04-21 05:51 | -38.13993 | 165.42210 | 33989 ft | 451 kts | 269° |
| 2026-04-21 05:51 | -38.13612 | 165.34248 | 33988 ft | 452 kts | 269° |
| 2026-04-21 05:52 | -38.13224 | 165.26231 | 33992 ft | 452 kts | 269° |
| 2026-04-21 05:52 | -38.12835 | 165.18308 | 33990 ft | 452 kts | 269° |
| 2026-04-21 05:53 | -38.12438 | 165.10341 | 33996 ft | 452 kts | 268° |
| 2026-04-21 05:53 | -38.12035 | 165.02361 | 33995 ft | 452 kts | 268° |
| 2026-04-21 05:54 | -38.11627 | 164.94396 | 33992 ft | 452 kts | 268° |
| 2026-04-21 05:54 | -38.11215 | 164.86437 | 33988 ft | 452 kts | 268° |
| 2026-04-21 05:55 | -38.10796 | 164.78476 | 33990 ft | 452 kts | 268° |
| 2026-04-21 05:55 | -38.10373 | 164.70513 | 33995 ft | 452 kts | 268° |
| 2026-04-21 05:56 | -38.09944 | 164.62556 | 33995 ft | 452 kts | 268° |
| 2026-04-21 05:56 | -38.09510 | 164.54601 | 34003 ft | 452 kts | 268° |
| 2026-04-21 05:57 | -38.09074 | 164.46702 | 34000 ft | 452 kts | 268° |
| 2026-04-21 05:57 | -38.08629 | 164.38751 | 33999 ft | 452 kts | 268° |
| 2026-04-21 05:58 | -38.08178 | 164.30790 | 34003 ft | 452 kts | 268° |
| 2026-04-21 05:58 | -38.07723 | 164.22839 | 34002 ft | 452 kts | 268° |
| 2026-04-21 05:59 | -38.07262 | 164.14884 | 34007 ft | 452 kts | 268° |
| 2026-04-21 06:00 | -38.06561 | 164.02963 | 34007 ft | 451 kts | 268° |
| 2026-04-21 06:00 | -38.06087 | 163.95026 | 34005 ft | 451 kts | 268° |
| 2026-04-21 06:01 | -38.05608 | 163.87097 | 34009 ft | 451 kts | 268° |
| 2026-04-21 06:01 | -38.05125 | 163.79179 | 34016 ft | 450 kts | 268° |
| 2026-04-21 06:02 | -38.04637 | 163.71271 | 34023 ft | 449 kts | 268° |
| 2026-04-21 06:02 | -38.04144 | 163.63368 | 34019 ft | 449 kts | 268° |
| 2026-04-21 06:03 | -38.03650 | 163.55537 | 34023 ft | 448 kts | 269° |
| 2026-04-21 06:03 | -38.03148 | 163.47649 | 34025 ft | 448 kts | 269° |
| 2026-04-21 06:04 | -38.02641 | 163.39785 | 34028 ft | 447 kts | 269° |
| 2026-04-21 06:04 | -38.02131 | 163.31938 | 34026 ft | 446 kts | 269° |
| 2026-04-21 06:05 | -38.01615 | 163.24096 | 34031 ft | 446 kts | 269° |
| 2026-04-21 06:05 | -38.01096 | 163.16263 | 34033 ft | 445 kts | 269° |
| 2026-04-21 06:06 | -38.00572 | 163.08438 | 34033 ft | 445 kts | 269° |
| 2026-04-21 06:06 | -38.00009 | 163.00621 | 34030 ft | 447 kts | 273° |
| 2026-04-21 06:07 | -37.98414 | 162.92939 | 34044 ft | 453 kts | 282° |
| 2026-04-21 06:07 | -37.96471 | 162.85331 | 34034 ft | 453 kts | 283° |
| 2026-04-21 06:08 | -37.94538 | 162.77734 | 34037 ft | 453 kts | 283° |
| 2026-04-21 06:08 | -37.93587 | 162.73947 | 34254 ft | 449 kts | 283° |
| 2026-04-21 06:08 | -37.92663 | 162.70243 | 34479 ft | 446 kts | 283° |
| 2026-04-21 06:08 | -37.91733 | 162.66504 | 34695 ft | 444 kts | 283° |
| 2026-04-21 06:09 | -37.90807 | 162.62777 | 34839 ft | 444 kts | 283° |
| 2026-04-21 06:09 | -37.88950 | 162.55300 | 35078 ft | 445 kts | 283° |
| 2026-04-21 06:09 | -37.88022 | 162.51573 | 35221 ft | 444 kts | 283° |
| 2026-04-21 06:10 | -37.87091 | 162.47844 | 35362 ft | 444 kts | 283° |
| 2026-04-21 06:10 | -37.86161 | 162.44126 | 35512 ft | 443 kts | 283° |
| 2026-04-21 06:10 | -37.85230 | 162.40410 | 35658 ft | 443 kts | 283° |
| 2026-04-21 06:10 | -37.84299 | 162.36701 | 35805 ft | 442 kts | 283° |
| 2026-04-21 06:11 | -37.83368 | 162.32997 | 35950 ft | 441 kts | 283° |
| 2026-04-21 06:11 | -37.81503 | 162.25586 | 36056 ft | 445 kts | 283° |
| 2026-04-21 06:12 | -37.79613 | 162.18100 | 36073 ft | 449 kts | 284° |
| 2026-04-21 06:12 | -37.77708 | 162.10584 | 36054 ft | 447 kts | 284° |
| 2026-04-21 06:13 | -37.75810 | 162.03125 | 36063 ft | 444 kts | 284° |
| 2026-04-21 06:13 | -37.73919 | 161.95712 | 36066 ft | 442 kts | 284° |
| 2026-04-21 06:14 | -37.72033 | 161.88335 | 36077 ft | 442 kts | 284° |
| 2026-04-21 06:14 | -37.70131 | 161.80907 | 36086 ft | 447 kts | 284° |
| 2026-04-21 06:15 | -37.68208 | 161.73431 | 36076 ft | 447 kts | 284° |
| 2026-04-21 06:15 | -37.66289 | 161.66001 | 36072 ft | 444 kts | 284° |
| 2026-04-21 06:16 | -37.64381 | 161.58628 | 36074 ft | 441 kts | 284° |
| 2026-04-21 06:16 | -37.62488 | 161.51334 | 36087 ft | 439 kts | 284° |
| 2026-04-21 06:17 | -37.60587 | 161.44026 | 36093 ft | 439 kts | 284° |
| 2026-04-21 06:17 | -37.58679 | 161.36714 | 36104 ft | 439 kts | 284° |
| 2026-04-21 06:18 | -37.56760 | 161.29372 | 36020 ft | 445 kts | 284° |
| 2026-04-21 06:18 | -37.55778 | 161.25620 | 35601 ft | 453 kts | 284° |
| 2026-04-21 06:18 | -37.54792 | 161.21866 | 35240 ft | 450 kts | 284° |
| 2026-04-21 06:18 | -37.53809 | 161.18135 | 34872 ft | 446 kts | 284° |
| 2026-04-21 06:19 | -37.52837 | 161.14459 | 34510 ft | 441 kts | 284° |
| 2026-04-21 06:19 | -37.51868 | 161.10794 | 34175 ft | 440 kts | 284° |
| 2026-04-21 06:19 | -37.50902 | 161.07134 | 34137 ft | 442 kts | 284° |
| 2026-04-21 06:20 | -37.48949 | 160.99755 | 34109 ft | 444 kts | 284° |
| 2026-04-21 06:20 | -37.46998 | 160.92409 | 34103 ft | 440 kts | 284° |
| 2026-04-21 06:21 | -37.45060 | 160.85135 | 34108 ft | 437 kts | 284° |
| 2026-04-21 06:21 | -37.43133 | 160.77911 | 34108 ft | 434 kts | 285° |
| 2026-04-21 06:22 | -37.41535 | 160.71945 | 34115 ft | 433 kts | 285° |
| 2026-04-21 06:22 | -37.39284 | 160.63556 | 34120 ft | 434 kts | 285° |
| 2026-04-21 06:23 | -37.37675 | 160.57577 | 34126 ft | 434 kts | 284° |
| 2026-04-21 06:23 | -37.35724 | 160.50342 | 34137 ft | 439 kts | 285° |
| 2026-04-21 06:24 | -37.33437 | 160.41884 | 34132 ft | 440 kts | 285° |
| 2026-04-21 06:24 | -37.31776 | 160.35777 | 34128 ft | 441 kts | 284° |
| 2026-04-21 06:25 | -37.29795 | 160.28502 | 34133 ft | 440 kts | 285° |
| 2026-04-21 06:25 | -37.27811 | 160.21242 | 34128 ft | 439 kts | 285° |
| 2026-04-21 06:26 | -37.25844 | 160.14055 | 34141 ft | 437 kts | 285° |
| 2026-04-21 06:26 | -37.23869 | 160.06854 | 34141 ft | 436 kts | 285° |
| 2026-04-21 06:27 | -37.21893 | 159.99676 | 34136 ft | 435 kts | 285° |
| 2026-04-21 06:27 | -37.19920 | 159.92520 | 34145 ft | 433 kts | 286° |
| 2026-04-21 06:28 | -37.17944 | 159.85381 | 34152 ft | 433 kts | 285° |
| 2026-04-21 06:28 | -37.15965 | 159.78247 | 34151 ft | 433 kts | 285° |
| 2026-04-21 06:29 | -37.13980 | 159.71107 | 34150 ft | 434 kts | 285° |
| 2026-04-21 06:29 | -37.12002 | 159.64011 | 34155 ft | 434 kts | 285° |
| 2026-04-21 06:30 | -37.10002 | 159.56861 | 34160 ft | 435 kts | 286° |
| 2026-04-21 06:30 | -37.07993 | 159.49697 | 34158 ft | 436 kts | 285° |
| 2026-04-21 06:31 | -37.05976 | 159.42520 | 34165 ft | 437 kts | 285° |
| 2026-04-21 06:31 | -37.03952 | 159.35333 | 34163 ft | 438 kts | 285° |
| 2026-04-21 06:32 | -37.01917 | 159.28135 | 34164 ft | 439 kts | 286° |
| 2026-04-21 06:32 | -36.99876 | 159.20938 | 34162 ft | 439 kts | 285° |
| 2026-04-21 06:33 | -36.97829 | 159.13737 | 34171 ft | 439 kts | 285° |
| 2026-04-21 06:33 | -36.95779 | 159.06535 | 34173 ft | 440 kts | 285° |
| 2026-04-21 06:34 | -36.93724 | 158.99341 | 34178 ft | 439 kts | 285° |
| 2026-04-21 06:34 | -36.91665 | 158.92151 | 34177 ft | 439 kts | 285° |
| 2026-04-21 06:35 | -36.89599 | 158.84959 | 34180 ft | 439 kts | 285° |
| 2026-04-21 06:35 | -36.87532 | 158.77782 | 34181 ft | 439 kts | 285° |
| 2026-04-21 06:36 | -36.85461 | 158.70607 | 34183 ft | 439 kts | 285° |
| 2026-04-21 06:36 | -36.83388 | 158.63445 | 34185 ft | 439 kts | 285° |
| 2026-04-21 06:37 | -36.81312 | 158.56291 | 34186 ft | 438 kts | 285° |
| 2026-04-21 06:37 | -36.79231 | 158.49139 | 34189 ft | 438 kts | 285° |
| 2026-04-21 06:38 | -36.77145 | 158.41989 | 34191 ft | 438 kts | 285° |
| 2026-04-21 06:38 | -36.75057 | 158.34849 | 34195 ft | 438 kts | 285° |
| 2026-04-21 06:39 | -36.72964 | 158.27710 | 34195 ft | 438 kts | 285° |
| 2026-04-21 06:39 | -36.70880 | 158.20623 | 34193 ft | 438 kts | 285° |
| 2026-04-21 06:40 | -36.68779 | 158.13494 | 34200 ft | 438 kts | 285° |
| 2026-04-21 06:40 | -36.66674 | 158.06370 | 34200 ft | 438 kts | 285° |
| 2026-04-21 06:41 | -36.64564 | 157.99249 | 34204 ft | 438 kts | 285° |
| 2026-04-21 06:41 | -36.62449 | 157.92128 | 34206 ft | 438 kts | 285° |
| 2026-04-21 06:42 | -36.60331 | 157.85016 | 34205 ft | 438 kts | 285° |
| 2026-04-21 06:42 | -36.58209 | 157.77908 | 34206 ft | 438 kts | 284° |
| 2026-04-21 06:43 | -36.56083 | 157.70804 | 34210 ft | 438 kts | 284° |
| 2026-04-21 06:43 | -36.53953 | 157.63705 | 34216 ft | 438 kts | 284° |
| 2026-04-21 06:44 | -36.51820 | 157.56614 | 34214 ft | 438 kts | 284° |
| 2026-04-21 06:44 | -36.49681 | 157.49520 | 34213 ft | 438 kts | 284° |
| 2026-04-21 06:45 | -36.47539 | 157.42437 | 34219 ft | 438 kts | 284° |
| 2026-04-21 06:45 | -36.45393 | 157.35353 | 34219 ft | 438 kts | 284° |
| 2026-04-21 06:46 | -36.43243 | 157.28279 | 34220 ft | 438 kts | 284° |
| 2026-04-21 06:46 | -36.41088 | 157.21204 | 34220 ft | 438 kts | 284° |
| 2026-04-21 06:47 | -36.38942 | 157.14174 | 34227 ft | 438 kts | 284° |
| 2026-04-21 06:47 | -36.36776 | 157.07099 | 34226 ft | 439 kts | 284° |
| 2026-04-21 06:48 | -36.34606 | 157.00029 | 34239 ft | 439 kts | 284° |
| 2026-04-21 06:48 | -36.32431 | 156.92957 | 34222 ft | 439 kts | 284° |
| 2026-04-21 06:49 | -36.30253 | 156.85899 | 34229 ft | 437 kts | 284° |
| 2026-04-21 06:49 | -36.28079 | 156.78866 | 34233 ft | 436 kts | 284° |
| 2026-04-21 06:50 | -36.25903 | 156.71845 | 34231 ft | 436 kts | 284° |
| 2026-04-21 06:50 | -36.23728 | 156.64843 | 34232 ft | 436 kts | 284° |
| 2026-04-21 06:51 | -36.21548 | 156.57842 | 34240 ft | 436 kts | 284° |
| 2026-04-21 06:51 | -36.19377 | 156.50887 | 34242 ft | 436 kts | 284° |
| 2026-04-21 06:52 | -36.17185 | 156.43880 | 34243 ft | 437 kts | 284° |
| 2026-04-21 06:52 | -36.14986 | 156.36869 | 34243 ft | 437 kts | 284° |
| 2026-04-21 06:53 | -36.12780 | 156.29854 | 34240 ft | 438 kts | 284° |
| 2026-04-21 06:53 | -36.10568 | 156.22837 | 34245 ft | 438 kts | 284° |
| 2026-04-21 06:54 | -36.08349 | 156.15814 | 34245 ft | 438 kts | 284° |
| 2026-04-21 06:54 | -36.06124 | 156.08792 | 34244 ft | 439 kts | 284° |
| 2026-04-21 06:55 | -36.03897 | 156.01776 | 34244 ft | 438 kts | 284° |
| 2026-04-21 06:55 | -36.01665 | 155.94765 | 34248 ft | 438 kts | 284° |
| 2026-04-21 06:56 | -35.99431 | 155.87760 | 34249 ft | 438 kts | 284° |
| 2026-04-21 06:56 | -35.97195 | 155.80770 | 34256 ft | 438 kts | 284° |
| 2026-04-21 06:57 | -35.94955 | 155.73783 | 34253 ft | 437 kts | 284° |
| 2026-04-21 06:57 | -35.92717 | 155.66819 | 34251 ft | 436 kts | 284° |
| 2026-04-21 06:58 | -35.90478 | 155.59866 | 34255 ft | 436 kts | 284° |
| 2026-04-21 06:58 | -35.88246 | 155.52946 | 34258 ft | 437 kts | 284° |
| 2026-04-21 06:59 | -35.85991 | 155.45976 | 34258 ft | 438 kts | 284° |
| 2026-04-21 06:59 | -35.83728 | 155.38997 | 34258 ft | 439 kts | 284° |
| 2026-04-21 07:00 | -35.81457 | 155.32016 | 34265 ft | 438 kts | 284° |
| 2026-04-21 07:00 | -35.79188 | 155.25052 | 34264 ft | 438 kts | 284° |
| 2026-04-21 07:01 | -35.76916 | 155.18099 | 34259 ft | 437 kts | 284° |
| 2026-04-21 07:01 | -35.73511 | 155.07705 | 34270 ft | 435 kts | 284° |
| 2026-04-21 07:02 | -35.71246 | 155.00809 | 34271 ft | 434 kts | 284° |
| 2026-04-21 07:02 | -35.68980 | 154.93925 | 34271 ft | 434 kts | 284° |
| 2026-04-21 07:03 | -35.66729 | 154.87102 | 34268 ft | 433 kts | 284° |
| 2026-04-21 07:03 | -35.64463 | 154.80247 | 34272 ft | 432 kts | 284° |
| 2026-04-21 07:04 | -35.62193 | 154.73397 | 34273 ft | 432 kts | 284° |
| 2026-04-21 07:04 | -35.59355 | 154.66795 | 34271 ft | 448 kts | 301° |
| 2026-04-21 07:05 | -35.55304 | 154.60921 | 34271 ft | 452 kts | 304° |
| 2026-04-21 07:05 | -35.51143 | 154.55119 | 34278 ft | 453 kts | 304° |
| 2026-04-21 07:06 | -35.47002 | 154.49289 | 34275 ft | 453 kts | 303° |
| 2026-04-21 07:06 | -35.42884 | 154.43435 | 34272 ft | 453 kts | 303° |
| 2026-04-21 07:07 | -35.38767 | 154.37570 | 34279 ft | 454 kts | 303° |
| 2026-04-21 07:07 | -35.34646 | 154.31708 | 34281 ft | 454 kts | 304° |
| 2026-04-21 07:08 | -35.30517 | 154.25847 | 34279 ft | 454 kts | 304° |
| 2026-04-21 07:08 | -35.26384 | 154.19992 | 34282 ft | 454 kts | 304° |
| 2026-04-21 07:09 | -35.22252 | 154.14148 | 34289 ft | 454 kts | 304° |
| 2026-04-21 07:09 | -35.18109 | 154.08299 | 34278 ft | 454 kts | 304° |
| 2026-04-21 07:10 | -35.14672 | 154.03455 | 34284 ft | 454 kts | 304° |
| 2026-04-21 07:10 | -35.10535 | 153.97631 | 34282 ft | 453 kts | 304° |
| 2026-04-21 07:11 | -35.05701 | 153.90840 | 34284 ft | 453 kts | 304° |
| 2026-04-21 07:11 | -35.01596 | 153.85082 | 34277 ft | 453 kts | 304° |
| 2026-04-21 07:12 | -34.98126 | 153.80222 | 34283 ft | 454 kts | 304° |
| 2026-04-21 07:12 | -34.93977 | 153.74420 | 34282 ft | 454 kts | 305° |
| 2026-04-21 07:13 | -34.89818 | 153.68616 | 34289 ft | 454 kts | 305° |
| 2026-04-21 07:13 | -34.85663 | 153.62827 | 34284 ft | 453 kts | 305° |
| 2026-04-21 07:14 | -34.80851 | 153.56135 | 34278 ft | 451 kts | 305° |
| 2026-04-21 07:14 | -34.77386 | 153.51323 | 34283 ft | 451 kts | 305° |
| 2026-04-21 07:15 | -34.73245 | 153.45579 | 34288 ft | 452 kts | 305° |
| 2026-04-21 07:15 | -34.69095 | 153.39815 | 34291 ft | 453 kts | 305° |
| 2026-04-21 07:16 | -34.64950 | 153.34050 | 34301 ft | 453 kts | 305° |
| 2026-04-21 07:16 | -34.62898 | 153.31204 | 34279 ft | 442 kts | 305° |
| 2026-04-21 07:16 | -34.60925 | 153.28480 | 34225 ft | 429 kts | 305° |
| 2026-04-21 07:17 | -34.58934 | 153.25745 | 34102 ft | 425 kts | 305° |
| 2026-04-21 07:17 | -34.56982 | 153.23064 | 33974 ft | 422 kts | 305° |
| 2026-04-21 07:17 | -34.55072 | 153.20444 | 33852 ft | 419 kts | 305° |
| 2026-04-21 07:17 | -34.53133 | 153.17792 | 33692 ft | 410 kts | 305° |
| 2026-04-21 07:18 | -34.51257 | 153.15239 | 33499 ft | 400 kts | 305° |
| 2026-04-21 07:18 | -34.49420 | 153.12752 | 33270 ft | 394 kts | 305° |
| 2026-04-21 07:18 | -34.47604 | 153.10292 | 33072 ft | 402 kts | 305° |
| 2026-04-21 07:18 | -34.45722 | 153.07724 | 32915 ft | 413 kts | 305° |
| 2026-04-21 07:19 | -34.41847 | 153.02397 | 32763 ft | 429 kts | 305° |
| 2026-04-21 07:19 | -34.39846 | 152.99624 | 32291 ft | 447 kts | 305° |
| 2026-04-21 07:19 | -34.37782 | 152.96741 | 31789 ft | 456 kts | 305° |
| 2026-04-21 07:20 | -34.35705 | 152.93836 | 31258 ft | 455 kts | 305° |
| 2026-04-21 07:20 | -34.33646 | 152.90959 | 30718 ft | 450 kts | 305° |
| 2026-04-21 07:20 | -34.31606 | 152.88110 | 30159 ft | 445 kts | 305° |
| 2026-04-21 07:20 | -34.29587 | 152.85285 | 29532 ft | 441 kts | 305° |
| 2026-04-21 07:21 | -34.27596 | 152.82491 | 28946 ft | 437 kts | 305° |
| 2026-04-21 07:21 | -34.25619 | 152.79707 | 28357 ft | 434 kts | 305° |
| 2026-04-21 07:21 | -34.23665 | 152.76951 | 27776 ft | 429 kts | 306° |
| 2026-04-21 07:21 | -34.21640 | 152.74312 | 27207 ft | 427 kts | 309° |
| 2026-04-21 07:22 | -34.19575 | 152.71751 | 26654 ft | 424 kts | 309° |
| 2026-04-21 07:22 | -34.17546 | 152.69180 | 26127 ft | 421 kts | 308° |
| 2026-04-21 07:22 | -34.15566 | 152.66575 | 25590 ft | 422 kts | 307° |
| 2026-04-21 07:22 | -34.13605 | 152.63930 | 25076 ft | 424 kts | 307° |
| 2026-04-21 07:23 | -34.11648 | 152.61274 | 24565 ft | 422 kts | 307° |
| 2026-04-21 07:23 | -34.09829 | 152.58521 | 24048 ft | 417 kts | 297° |
| 2026-04-21 07:23 | -34.08529 | 152.55438 | 23520 ft | 409 kts | 286° |
| 2026-04-21 07:23 | -34.07736 | 152.52214 | 23345 ft | 397 kts | 275° |
| 2026-04-21 07:24 | -34.07392 | 152.48922 | 23306 ft | 394 kts | 271° |
| 2026-04-21 07:24 | -34.07105 | 152.45645 | 23298 ft | 392 kts | 271° |
| 2026-04-21 07:24 | -34.06801 | 152.42373 | 23121 ft | 394 kts | 271° |
| 2026-04-21 07:24 | -34.06488 | 152.39087 | 22630 ft | 393 kts | 272° |
| 2026-04-21 07:25 | -34.06176 | 152.35870 | 22113 ft | 388 kts | 272° |
| 2026-04-21 07:25 | -34.05864 | 152.32661 | 21537 ft | 384 kts | 272° |
| 2026-04-21 07:25 | -34.05556 | 152.29478 | 20989 ft | 379 kts | 272° |
| 2026-04-21 07:25 | -34.05253 | 152.26337 | 20445 ft | 376 kts | 272° |
| 2026-04-21 07:26 | -34.04952 | 152.23218 | 19917 ft | 373 kts | 272° |
| 2026-04-21 07:26 | -34.04654 | 152.20120 | 19399 ft | 371 kts | 273° |
| 2026-04-21 07:26 | -34.04357 | 152.17037 | 18888 ft | 369 kts | 273° |
| 2026-04-21 07:26 | -34.04061 | 152.13976 | 18334 ft | 367 kts | 273° |
| 2026-04-21 07:27 | -34.03765 | 152.10924 | 17761 ft | 365 kts | 273° |
| 2026-04-21 07:27 | -34.03470 | 152.07897 | 17194 ft | 363 kts | 273° |
| 2026-04-21 07:27 | -34.03176 | 152.04889 | 16638 ft | 360 kts | 273° |
| 2026-04-21 07:27 | -34.03023 | 152.03325 | 16353 ft | 359 kts | 273° |
| 2026-04-21 07:28 | -34.02732 | 152.00348 | 15805 ft | 356 kts | 273° |
| 2026-04-21 07:28 | -34.02442 | 151.97398 | 15288 ft | 352 kts | 273° |
| 2026-04-21 07:28 | -34.02155 | 151.94492 | 14803 ft | 348 kts | 273° |
| 2026-04-21 07:28 | -34.01870 | 151.91603 | 14352 ft | 345 kts | 273° |
| 2026-04-21 07:29 | -34.01589 | 151.88772 | 13955 ft | 335 kts | 273° |
| 2026-04-21 07:29 | -34.01315 | 151.86014 | 13526 ft | 328 kts | 273° |
| 2026-04-21 07:29 | -34.01046 | 151.83316 | 13105 ft | 321 kts | 273° |
| 2026-04-21 07:29 | -34.00782 | 151.80663 | 12695 ft | 316 kts | 272° |
| 2026-04-21 07:30 | -34.00523 | 151.78058 | 12293 ft | 312 kts | 273° |
| 2026-04-21 07:30 | -34.00265 | 151.75471 | 11889 ft | 309 kts | 273° |
| 2026-04-21 07:30 | -34.00010 | 151.72910 | 11497 ft | 307 kts | 273° |
| 2026-04-21 07:30 | -33.99753 | 151.70350 | 11121 ft | 309 kts | 273° |
| 2026-04-21 07:31 | -33.99496 | 151.67777 | 10729 ft | 310 kts | 273° |
| 2026-04-21 07:31 | -33.99237 | 151.65213 | 10357 ft | 305 kts | 273° |
| 2026-04-21 07:31 | -33.98983 | 151.62710 | 10002 ft | 297 kts | 273° |
| 2026-04-21 07:31 | -33.98735 | 151.60269 | 9629 ft | 291 kts | 273° |
| 2026-04-21 07:32 | -33.98490 | 151.57858 | 9276 ft | 291 kts | 273° |
| 2026-04-21 07:32 | -33.98242 | 151.55439 | 8921 ft | 290 kts | 273° |
| 2026-04-21 07:32 | -33.97992 | 151.53053 | 8555 ft | 284 kts | 273° |
| 2026-04-21 07:32 | -33.97747 | 151.50715 | 8208 ft | 279 kts | 273° |
| 2026-04-21 07:33 | -33.97507 | 151.48419 | 7857 ft | 274 kts | 273° |
| 2026-04-21 07:33 | -33.97270 | 151.46157 | 7515 ft | 271 kts | 273° |
| 2026-04-21 07:33 | -33.97035 | 151.43900 | 7177 ft | 272 kts | 273° |
| 2026-04-21 07:33 | -33.96797 | 151.41636 | 6855 ft | 273 kts | 273° |
| 2026-04-21 07:34 | -33.96558 | 151.39364 | 6509 ft | 274 kts | 273° |
| 2026-04-21 07:34 | -33.96320 | 151.37087 | 6157 ft | 274 kts | 273° |
| 2026-04-21 07:34 | -33.96090 | 151.34855 | 6013 ft | 267 kts | 273° |
| 2026-04-21 07:34 | -33.95864 | 151.32654 | 5997 ft | 263 kts | 273° |
| 2026-04-21 07:35 | -33.95642 | 151.30500 | 5978 ft | 254 kts | 272° |
| 2026-04-21 07:35 | -33.95446 | 151.28431 | 5971 ft | 243 kts | 267° |
| 2026-04-21 07:35 | -33.95250 | 151.26434 | 5976 ft | 244 kts | 287° |
| 2026-04-21 07:35 | -33.94274 | 151.24746 | 6002 ft | 253 kts | 319° |
| 2026-04-21 07:36 | -33.92694 | 151.23800 | 6015 ft | 258 kts | 344° |
| 2026-04-21 07:36 | -33.90929 | 151.23290 | 5932 ft | 264 kts | 347° |
| 2026-04-21 07:36 | -33.89126 | 151.22827 | 5743 ft | 263 kts | 348° |
| 2026-04-21 07:36 | -33.87344 | 151.22383 | 5579 ft | 259 kts | 348° |
| 2026-04-21 07:37 | -33.85603 | 151.21949 | 5433 ft | 252 kts | 348° |
| 2026-04-21 07:37 | -33.83917 | 151.21526 | 5304 ft | 243 kts | 348° |
| 2026-04-21 07:37 | -33.82286 | 151.21119 | 5136 ft | 238 kts | 348° |
| 2026-04-21 07:37 | -33.80671 | 151.20709 | 4984 ft | 238 kts | 347° |
| 2026-04-21 07:38 | -33.79035 | 151.20295 | 4829 ft | 242 kts | 348° |
| 2026-04-21 07:38 | -33.77385 | 151.19876 | 4677 ft | 242 kts | 348° |
| 2026-04-21 07:38 | -33.75720 | 151.19426 | 4540 ft | 248 kts | 341° |
| 2026-04-21 07:38 | -33.74249 | 151.18366 | 4364 ft | 247 kts | 315° |
| 2026-04-21 07:39 | -33.73036 | 151.16909 | 4234 ft | 248 kts | 309° |
| 2026-04-21 07:39 | -33.71848 | 151.15419 | 4073 ft | 243 kts | 312° |
| 2026-04-21 07:39 | -33.70683 | 151.14027 | 3983 ft | 228 kts | 313° |
| 2026-04-21 07:39 | -33.69835 | 151.12545 | 3951 ft | 207 kts | 277° |
| 2026-04-21 07:40 | -33.70019 | 151.10959 | 3993 ft | 190 kts | 230° |
| 2026-04-21 07:40 | -33.71063 | 151.10114 | 3988 ft | 185 kts | 185° |
| 2026-04-21 07:40 | -33.72258 | 151.10508 | 3994 ft | 182 kts | 141° |
| 2026-04-21 07:40 | -33.73146 | 151.11563 | 3985 ft | 178 kts | 144° |
| 2026-04-21 07:41 | -33.74158 | 151.12375 | 3982 ft | 174 kts | 152° |
| 2026-04-21 07:41 | -33.75218 | 151.13055 | 3980 ft | 172 kts | 154° |
| 2026-04-21 07:41 | -33.76315 | 151.13642 | 3847 ft | 176 kts | 160° |
| 2026-04-21 07:41 | -33.77463 | 151.14133 | 3629 ft | 178 kts | 161° |
| 2026-04-21 07:42 | -33.78626 | 151.14580 | 3412 ft | 172 kts | 165° |
| 2026-04-21 07:42 | -33.79769 | 151.14926 | 3165 ft | 166 kts | 166° |
| 2026-04-21 07:42 | -33.80879 | 151.15225 | 2962 ft | 161 kts | 167° |
| 2026-04-21 07:42 | -33.81975 | 151.15510 | 2754 ft | 162 kts | 168° |
| 2026-04-21 07:43 | -33.83079 | 151.15793 | 2537 ft | 161 kts | 167° |
| 2026-04-21 07:43 | -33.84144 | 151.16066 | 2304 ft | 150 kts | 167° |
| 2026-04-21 07:43 | -33.85157 | 151.16326 | 2111 ft | 150 kts | 168° |
| 2026-04-21 07:43 | -33.86180 | 151.16589 | 1913 ft | 150 kts | 167° |
| 2026-04-21 07:44 | -33.87161 | 151.16840 | 1716 ft | 140 kts | 168° |
| 2026-04-21 07:44 | -33.88099 | 151.17080 | 1539 ft | 137 kts | 169° |
| 2026-04-21 07:44 | -33.89003 | 151.17313 | 1351 ft | 130 kts | 169° |
| 2026-04-21 07:44 | -33.89851 | 151.17530 | 1186 ft | 122 kts | 169° |
| 2026-04-21 07:45 | -33.90718 | 151.17752 | 1019 ft | 131 kts | 168° |
| 2026-04-21 07:45 | -33.91610 | 151.17982 | 849 ft | 130 kts | 168° |
| 2026-04-21 07:45 | -33.92488 | 151.18201 | 650 ft | 128 kts | 168° |
| 2026-04-21 07:45 | -33.93363 | 151.18427 | 490 ft | 126 kts | 169° |
| 2026-04-21 07:46 | -33.94199 | 151.18641 | 222 ft | 122 kts | 171° |
| 2026-04-21 07:46 | -33.95073 | 151.18862 | 83 ft | 123 kts | 168° |
| 2026-04-21 07:46 | -33.95841 | 151.19059 | 27 ft | 97 kts | 169° |
| 2026-04-21 07:46 | -33.96356 | 151.19193 | 21 ft | 54 kts | 168° |
| 2026-04-21 07:47 | -33.96634 | 151.19264 | 17 ft | 37 kts | 168° |
| 2026-04-21 07:47 | -33.96870 | 151.19298 | 20 ft | 31 kts | 179° |
| 2026-04-21 07:47 | -33.97042 | 151.19268 | 21 ft | 17 kts | 193° |
| 2026-04-21 07:47 | -33.97112 | 151.19239 | 21 ft | 10 kts | 215° |
| 2026-04-21 07:48 | -33.97125 | 151.19169 | 19 ft | 10 kts | 302° |
| 2026-04-21 07:48 | -33.97069 | 151.19133 | 18 ft | 9 kts | 348° |
| 2026-04-21 07:48 | -33.97006 | 151.19116 | 20 ft | 9 kts | 347° |
| 2026-04-21 07:48 | -33.96945 | 151.19101 | 19 ft | 9 kts | 346° |
| 2026-04-21 07:49 | -33.96884 | 151.19085 | 16 ft | 9 kts | 348° |
| 2026-04-21 07:49 | -33.96824 | 151.19071 | 16 ft | 10 kts | 352° |
| 2026-04-21 07:49 | -33.96727 | 151.19080 | 17 ft | 16 kts | 5° |
| 2026-04-21 07:49 | -33.96620 | 151.19060 | 17 ft | 15 kts | 347° |
| 2026-04-21 07:50 | -33.96519 | 151.19034 | 18 ft | 15 kts | 348° |
| 2026-04-21 07:50 | -33.96422 | 151.19009 | 20 ft | 14 kts | 348° |
| 2026-04-21 07:50 | -33.96329 | 151.18984 | 25 ft | 13 kts | 348° |
| 2026-04-21 07:50 | -33.96240 | 151.18962 | 25 ft | 13 kts | 347° |
| 2026-04-21 07:51 | -33.96153 | 151.18939 | 25 ft | 13 kts | 348° |
| 2026-04-21 07:51 | -33.96069 | 151.18919 | 25 ft | 12 kts | 348° |
| 2026-04-21 07:51 | -33.95969 | 151.18892 | 28 ft | 21 kts | 348° |
| 2026-04-21 07:51 | -33.95802 | 151.18849 | 25 ft | 25 kts | 346° |
| 2026-04-21 07:52 | -33.95637 | 151.18806 | 25 ft | 24 kts | 348° |
| 2026-04-21 07:52 | -33.95481 | 151.18765 | 20 ft | 23 kts | 348° |
| 2026-04-21 07:52 | -33.95332 | 151.18725 | 25 ft | 22 kts | 344° |
| 2026-04-21 07:52 | -33.95201 | 151.18637 | 25 ft | 22 kts | 318° |
| 2026-04-21 07:53 | -33.95114 | 151.18490 | 25 ft | 22 kts | 275° |
| 2026-04-21 07:53 | -33.95140 | 151.18313 | 23 ft | 21 kts | 257° |
| 2026-04-21 07:53 | -33.95172 | 151.18142 | 25 ft | 21 kts | 258° |
| 2026-04-21 07:53 | -33.95196 | 151.18002 | 26 ft | 8 kts | 263° |
| 2026-04-21 07:54 | -33.95156 | 151.17960 | 26 ft | 8 kts | 345° |
| 2026-04-21 07:54 | -33.95043 | 151.17930 | 25 ft | 23 kts | 348° |
| 2026-04-21 07:54 | -33.94885 | 151.17889 | 21 ft | 23 kts | 348° |
| 2026-04-21 07:54 | -33.94732 | 151.17849 | 22 ft | 22 kts | 348° |
| 2026-04-21 07:55 | -33.94585 | 151.17811 | 25 ft | 22 kts | 347° |
| 2026-04-21 07:55 | -33.94432 | 151.17768 | 24 ft | 22 kts | 344° |
| 2026-04-21 07:55 | -33.94288 | 151.17723 | 21 ft | 21 kts | 345° |
| 2026-04-21 07:55 | -33.94143 | 151.17678 | 21 ft | 21 kts | 346° |
| 2026-04-21 07:56 | -33.94007 | 151.17637 | 20 ft | 20 kts | 351° |
| 2026-04-21 07:56 | -33.93872 | 151.17603 | 18 ft | 20 kts | 347° |
| 2026-04-21 07:56 | -33.93741 | 151.17570 | 17 ft | 19 kts | 347° |
| 2026-04-21 07:56 | -33.93614 | 151.17536 | 16 ft | 18 kts | 347° |
| 2026-04-21 07:57 | -33.93493 | 151.17506 | 18 ft | 16 kts | 349° |
| 2026-04-21 07:57 | -33.93387 | 151.17505 | 21 ft | 15 kts | 353° |
| 2026-04-21 07:57 | -33.93287 | 151.17479 | 20 ft | 14 kts | 348° |
| 2026-04-21 07:57 | -33.93191 | 151.17456 | 21 ft | 14 kts | 346° |
| 2026-04-21 07:58 | -33.93100 | 151.17431 | 22 ft | 13 kts | 347° |
| 2026-04-21 07:58 | -33.93018 | 151.17410 | 23 ft | 11 kts | 348° |
| 2026-04-21 07:58 | -33.92993 | 151.17419 | 24 ft | 5 kts | 46° |
| 2026-04-21 07:58 | -33.92986 | 151.17465 | 28 ft | 6 kts | 96° |
| 2026-04-21 07:59 | -33.92995 | 151.17531 | 29 ft | 12 kts | 100° |
| 2026-04-21 07:59 | -33.93012 | 151.17639 | 29 ft | 13 kts | 103° |
| 2026-04-21 07:59 | -33.93021 | 151.17670 | 28 ft | 2 kts | 117° |
| 2026-04-21 07:59 | -33.93047 | 151.17680 | 29 ft | 5 kts | 181° |
| 2026-04-21 08:00 | -33.93087 | 151.17676 | 29 ft | 3 kts | 187° |
| 2026-04-21 08:00 | -33.93099 | 151.17674 | 28 ft | 0 kts | 188° |